x

Nickerson Bank (44251) Wave Buoy

9:00am - Tue 7th Jul 2015 All times are UTC.

  • Sig Wave height 6.6ft
  • Peak Period 8s
  • Wind
    9mph, 13mph gusts
  • Sea Temp 52°f
  • Air Temp 46°f
  • Sea Pressure 1023.7mb

More Historic Weather Station data

Upgrade to MSW Pro to gain access to the past 30 days of data for over 8000 Wavebouys and Weather Stations around the globe.

Join Pro

Comparision Forecast

View Surf forecast
   
Tue 07/07 9:00am 6.5ft 8s 9 13 mph 1023.7mb 52f 46f
8:00am 7ft 8s 9 11 mph 1023mb 52f 46f
7:00am 7ft 10s 11 13 mph 1022.6mb 52f 47f
6:00am 6.5ft 10s 13 16 mph 1022.2mb 52f 47f
5:00am 6.5ft 9s 11 13 mph 1021.9mb 52f 48f
4:00am 6.5ft 9s 9 11 mph 1021.6mb 52f 48f
3:00am 7ft 8s 11 13 mph 1021.3mb 52f 48f
2:00am 6.5ft 9s 16 20 mph 1021.2mb 52f 48f
1:00am 7ft 9s 13 16 mph 1021.2mb 52f 49f
12:00am 6.5ft 10s 9 11 mph 1020.8mb 52f 49f
Mon 07/06 11:00pm 6ft 9s 7 9 mph 1020.1mb 52f 48f
10:00pm 6.5ft 10s 4 7 mph 1019.3mb 52f 49f
9:00pm 6ft 10s 9 11 mph 1018.8mb 52f 48f
8:00pm 6ft 11s 9 11 mph 1018.6mb 52f 49f
7:00pm 5ft 11s 7
mph
1018.5mb 52f 49f
6:00pm 5ft 10s 11 13 mph 1018.1mb 52f 48f
5:00pm 5ft 10s 13 16 mph 1017.4mb 52f 49f
4:00pm 5ft 10s 13 16 mph 1016.9mb 52f 48f
3:00pm 5ft 10s 13 18 mph 1016.5mb 52f 48f
2:00pm 5ft 9s 13 16 mph 1016mb 52f 49f
1:00pm 4.5ft 10s 11 13 mph 1015.2mb 52f 49f
12:00pm 4.5ft 11s 9
mph
1014.7mb 52f 50f
11:00am 4ft 10s 7 9 mph 1014.4mb 52f 50f
10:00am 4.5ft 9s 9
mph
1014mb 52f 50f
9:00am 4.5ft 10s 9 11 mph 1013.3mb 52f 50f
8:00am 4.5ft 10s 7 9 mph 1012.8mb 52f 49f
7:00am 4.5ft 11s 9 13 mph 1012.5mb 52f 50f
6:00am 4ft 10s 11 13 mph 1012.6mb 52f 50f
5:00am 4ft 10s 16 18 mph 1012.3mb 52f 49f
4:00am 4.5ft 9s 16 20 mph 1011.8mb 52f 50f
3:00am 5ft 9s 11 13 mph 1012.7mb 52f 49f
2:00am 5ft 8s 16 18 mph 1013mb 52f 49f
1:00am 5ft 10s 13 16 mph 1013mb 52f 49f
12:00am 4.5ft 10s 13 16 mph 1013.4mb 52f 49f
Sun 07/05 11:00pm 5ft 10s 13 18 mph 1013.1mb 52f 49f
10:00pm 5ft 9s 11 13 mph 1013.6mb 52f 49f
9:00pm 5ft 8s 7 9 mph 1013.9mb 52f 49f
8:00pm 5.5ft 10s 9 11 mph 1014.3mb 52f 49f
7:00pm 6ft 9s 9 11 mph 1014.5mb 52f 49f
6:00pm 5ft 9s 9
mph
1014.3mb 52f 50f
5:00pm 5.5ft 9s 9
mph
1014.9mb 52f 50f
4:00pm 5ft 9s 11 13 mph 1015mb 52f 50f
3:00pm 6ft 10s 9 11 mph 1015.9mb 52f 49f
2:00pm 5.5ft 10s 9 11 mph 1015.8mb 52f 49f
1:00pm 5.5ft 9s 9 11 mph 1015.9mb 52f 49f
12:00pm 5ft 10s 4 7 mph 1016.6mb 52f 49f
11:00am 5.5ft 9s 2 4 mph 1017.1mb 52f 49f
10:00am 5.5ft 10s 4
mph
1016.7mb 52f 49f
9:00am 5.5ft 10s 2
mph
1016.6mb 52f 49f
8:00am 6.5ft 10s 2 7 mph 1016.6mb 52f 49f
7:00am 6ft 10s 2 4 mph 1016.7mb 52f 49f
6:00am 6ft 10s 7 9 mph 1017.1mb 52f 49f
5:00am 6ft 10s 7 9 mph 1016.9mb 52f 49f
4:00am 6.5ft 10s 2 4 mph 1016.8mb 52f 49f
3:00am 6.5ft 9s 2 7 mph 1016.8mb 52f 49f
2:00am 7ft 10s 9 11 mph 1016.8mb 52f 50f
1:00am 6ft 10s 7 9 mph 1016.9mb 52f 50f
12:00am 6.5ft 10s 7 9 mph 1017mb 52f 50f
Sat 07/04 11:00pm 6ft 10s 4 7 mph 1016.2mb 52f 51f
10:00pm 6.5ft 9s 7 9 mph 1015.5mb 52f 51f
9:00pm 6.5ft 10s 11 13 mph 1015.1mb 52f 51f
8:00pm 6.5ft 10s 13 16 mph 1014.8mb 52f 51f
7:00pm 7ft 10s 16 18 mph 1014.4mb 52f 51f
6:00pm 7ft 9s 16 18 mph 1014mb 52f 51f
5:00pm 7.5ft 10s 18 20 mph 1013.9mb 52f 51f
4:00pm 7ft 9s 18 20 mph 1013.2mb 51f 50f
2:00pm 6ft 8s 18 20 mph 1012.7mb 51f 50f
1:00pm 6ft 9s 9 13 mph 1012.4mb 51f 50f
12:00pm 6ft 9s 13 16 mph 1012.4mb 51f 48f
11:00am 6ft 8s 11 13 mph 1012.2mb 51f 47f
10:00am 5.5ft 9s 9 13 mph 1011.9mb 51f 47f
9:00am 6ft 7s 13 16 mph 1011.4mb 51f 47f
8:00am 6ft 9s 13 18 mph 1011mb 51f 48f
7:00am 6ft 9s 18 20 mph 1010.4mb 51f 48f
6:00am 6ft 8s 18 20 mph 1009.9mb 51f 49f
5:00am 5.5ft 9s 18 20 mph 1009.1mb 52f 50f
4:00am 5ft 9s 16 20 mph 1007.6mb 52f 51f
3:00am 5.5ft 8s 16 20 mph 1005.6mb 52f 53f
2:00am 5ft 8s 22 27 mph 1004.8mb 52f 51f
1:00am 5ft 10s 20 22 mph 1004.8mb 52f 53f
12:00am 4ft 8s 18 22 mph 1005.2mb 52f 54f
Fri 07/03 11:00pm 4ft 8s 18 20 mph 1005.8mb 53f 53f
10:00pm 4ft 10s 11 13 mph 1007.5mb 53f 52f
9:00pm 4ft 10s 11 13 mph 1009.3mb 53f 51f
8:00pm 4.5ft 10s 7 9 mph 1010.7mb 53f 51f
7:00pm 4.5ft 9s 9
mph
1012.1mb 53f 51f
6:00pm 4.5ft 9s 4
mph
1013.2mb 53f 51f
5:00pm 5ft 8s 4
mph
1013.8mb 53f 51f
4:00pm 4.5ft 8s 4 7 mph 1013.8mb 53f 51f
3:00pm 5ft 8s 9 11 mph 1014.2mb 53f 51f
2:00pm 5ft 8s 9 11 mph 1014.6mb 53f 50f
1:00pm 4.5ft 9s 9 11 mph 1014.6mb 52f 51f
12:00pm 4.5ft 9s 7 9 mph 1014.8mb 52f 51f
11:00am 4.5ft 9s 4 7 mph 1014.8mb 52f 50f